Time;durP1;ratioP1;P1;durP2;ratioP2;P2;SDS_P1;SDS_P2;PMS_P1;PMS_P2;Temp;Humidity;BMP_temperature;BMP_pressure;BME280_temperature;BME280_humidity;BME280_pressure;Samples;Min_cycle;Max_cycle;Signal;HPM_P1;HPM_P2
2021/11/03 00:01:18;;;;;;;0.40;0.30;;;;;;;6.76;96.06;99705.28;5032531;28;20455;-69
2021/11/03 00:03:49;;;;;;;3.37;3.17;;;;;;;6.82;95.58;99698.72;5032709;28;20451;-69
2021/11/03 00:06:17;;;;;;;0.40;0.30;;;;;;;6.69;95.31;99694.13;5032739;28;20873;-69
2021/11/03 00:08:44;;;;;;;0.40;0.30;;;;;;;6.55;94.75;99702.19;5032764;28;20439;-69
2021/11/03 00:11:11;;;;;;;0.40;0.30;;;;;;;6.62;95.11;99701.78;5032746;28;20451;-69
2021/11/03 00:13:39;;;;;;;0.50;0.40;;;;;;;6.58;95.23;99701.56;5032733;28;20497;-69
2021/11/03 00:16:06;;;;;;;0.40;0.30;;;;;;;6.60;95.39;99703.16;5032568;28;20486;-70
2021/11/03 00:18:32;;;;;;;0.40;0.30;;;;;;;6.64;95.89;99702.31;5032738;28;20447;-70
2021/11/03 00:21:01;;;;;;;0.40;0.30;;;;;;;6.64;96.53;99713.06;5032722;28;20447;-69
2021/11/03 00:23:27;;;;;;;0.40;0.20;;;;;;;6.69;96.12;99707.59;5032649;28;20455;-70
2021/11/03 00:25:54;;;;;;;0.40;0.30;;;;;;;6.74;96.39;99714.78;5032323;28;20458;-70
2021/11/03 00:28:22;;;;;;;0.40;0.30;;;;;;;6.78;96.51;99711.19;5032625;28;20443;-70
2021/11/03 00:30:53;;;;;;;0.40;0.30;;;;;;;6.82;95.85;99704.13;5032555;28;20451;-70
2021/11/03 00:33:20;;;;;;;0.40;0.30;;;;;;;6.69;96.27;99712.97;5034562;28;20430;-69
2021/11/03 00:35:47;;;;;;;0.50;0.50;;;;;;;6.70;96.41;99701.09;5035941;28;20486;-69
2021/11/03 00:38:14;;;;;;;0.40;0.30;;;;;;;6.74;96.11;99704.78;5036014;28;20443;-69
2021/11/03 00:40:40;;;;;;;0.40;0.30;;;;;;;6.66;96.41;99710.84;5035978;28;20446;-70
2021/11/03 00:43:07;;;;;;;0.40;0.30;;;;;;;6.69;95.84;99707.59;5035887;28;20447;-69
2021/11/03 00:45:34;;;;;;;0.40;0.30;;;;;;;6.55;95.75;99707.56;5035848;28;20462;-70
2021/11/03 00:48:01;;;;;;;0.40;0.30;;;;;;;6.43;94.76;99714.50;5035453;28;20945;-70
2021/11/03 00:50:28;;;;;;;0.40;0.30;;;;;;;6.27;94.85;99713.94;5035442;28;20439;-70
2021/11/03 00:52:55;;;;;;;0.40;0.30;;;;;;;6.17;95.43;99712.22;5035714;28;20489;-69
2021/11/03 00:55:22;;;;;;;0.40;0.30;;;;;;;6.17;94.40;99704.16;5035092;28;20483;-69
2021/11/03 00:57:48;;;;;;;0.40;0.30;;;;;;;6.06;94.12;99705.38;5035514;28;20482;-70
2021/11/03 01:00:18;;;;;;;0.40;0.30;;;;;;;5.95;94.08;99712.81;5035327;28;20443;-70
2021/11/03 01:02:45;;;;;;;0.40;0.30;;;;;;;5.79;94.04;99706.81;5035581;28;20447;-70
2021/11/03 01:05:15;;;;;;;0.40;0.30;;;;;;;5.87;94.25;99701.91;5035396;28;20513;-69
2021/11/03 01:07:41;;;;;;;0.40;0.30;;;;;;;5.78;92.70;99697.19;5035498;28;20856;-69
2021/11/03 01:10:10;;;;;;;0.40;0.30;;;;;;;5.77;92.85;99703.66;5035477;28;20542;-69
2021/11/03 01:12:36;;;;;;;0.40;0.30;;;;;;;5.74;93.40;99701.53;5035431;28;20451;-70
2021/11/03 01:15:05;;;;;;;0.40;0.30;;;;;;;5.66;94.79;99706.75;5035177;28;20467;-70
2021/11/03 01:17:31;;;;;;;0.40;0.20;;;;;;;5.50;95.88;99715.03;5035142;28;20609;-69
2021/11/03 01:19:58;;;;;;;0.40;0.30;;;;;;;5.55;96.14;99695.38;5035203;28;20451;-70
2021/11/03 01:22:26;;;;;;;0.40;0.27;;;;;;;5.60;96.76;99702.56;5035462;28;20440;-70
2021/11/03 01:24:52;;;;;;;0.40;0.30;;;;;;;5.63;97.12;99716.22;5035017;28;20498;-69
2021/11/03 01:27:19;;;;;;;0.40;0.20;;;;;;;5.66;96.57;99710.25;5035088;28;20446;-70
2021/11/03 01:29:45;;;;;;;2.20;2.10;;;;;;;5.73;95.66;99707.22;5035225;28;20447;-70
2021/11/03 01:32:11;;;;;;;0.40;0.30;;;;;;;5.68;95.83;99705.38;5034641;28;20842;-69
2021/11/03 01:34:38;;;;;;;0.40;0.30;;;;;;;5.76;95.26;99706.63;5034895;28;20490;-69
2021/11/03 01:37:05;;;;;;;0.40;0.30;;;;;;;5.66;95.17;99707.56;5034822;28;20485;-70
2021/11/03 01:39:32;;;;;;;0.40;0.30;;;;;;;5.57;95.84;99709.28;5034839;28;20451;-70
2021/11/03 01:41:59;;;;;;;0.40;0.30;;;;;;;5.53;96.22;99703.72;5034756;28;20454;-69
2021/11/03 01:44:25;;;;;;;0.40;0.30;;;;;;;5.59;95.55;99698.28;5034584;28;20458;-69
2021/11/03 01:46:54;;;;;;;0.40;0.30;;;;;;;5.50;94.35;99698.91;5034735;28;20794;-69
2021/11/03 01:49:24;;;;;;;0.40;0.30;;;;;;;5.40;93.58;99704.44;5034598;28;20462;-70
2021/11/03 01:51:55;;;;;;;0.40;0.30;;;;;;;5.28;93.15;99688.72;5034717;28;20761;-70
2021/11/03 01:54:26;;;;;;;0.40;0.30;;;;;;;5.19;94.25;99703.06;5034090;28;20928;-70
2021/11/03 01:56:55;;;;;;;0.87;0.87;;;;;;;5.10;94.55;99705.59;5034643;28;20464;-70
2021/11/03 01:59:25;;;;;;;0.40;0.30;;;;;;;5.13;92.36;99698.84;5034100;28;20815;-70
2021/11/03 02:01:52;;;;;;;0.40;0.30;;;;;;;5.14;92.58;99695.88;5034568;28;20442;-70
2021/11/03 02:04:20;;;;;;;0.40;0.30;;;;;;;5.08;92.94;99691.66;5034232;28;20454;-69
2021/11/03 02:06:47;;;;;;;0.40;0.30;;;;;;;4.93;93.56;99689.94;5034414;28;20443;-69
2021/11/03 02:09:14;;;;;;;0.40;0.30;;;;;;;4.88;93.72;99691.91;5034273;28;20449;-70
2021/11/03 02:11:41;;;;;;;0.40;0.30;;;;;;;4.76;93.50;99690.38;5034417;28;20431;-70
2021/11/03 02:14:09;;;;;;;0.40;0.27;;;;;;;4.73;95.33;99690.94;5033854;28;20999;-70
2021/11/03 02:16:41;;;;;;;0.40;0.30;;;;;;;4.79;95.82;99695.19;5033971;28;20482;-70
2021/11/03 02:19:12;;;;;;;0.40;0.30;;;;;;;4.85;95.68;99703.19;5034148;28;20422;-70
2021/11/03 02:21:47;;;;;;;0.40;0.30;;;;;;;4.91;94.81;99702.03;5034253;28;20427;-70
2021/11/03 02:24:17;;;;;;;0.40;0.30;;;;;;;4.86;95.13;99694.84;5034028;28;20825;-70
2021/11/03 02:26:47;;;;;;;0.40;0.30;;;;;;;4.84;96.00;99699.72;5033962;28;20424;-70
2021/11/03 02:29:16;;;;;;;0.40;0.30;;;;;;;4.86;95.99;99699.41;5033911;28;20439;-70
2021/11/03 02:31:46;;;;;;;0.40;0.27;;;;;;;4.88;95.21;99708.00;5033543;28;20941;-70
2021/11/03 02:34:20;;;;;;;0.60;0.60;;;;;;;4.87;95.49;99704.50;5033863;28;20447;-69
2021/11/03 02:36:53;;;;;;;0.40;0.30;;;;;;;4.94;94.96;99712.22;5033779;28;20474;-69
2021/11/03 02:39:24;;;;;;;0.40;0.20;;;;;;;4.87;95.70;99709.06;5033790;28;20462;-70
2021/11/03 02:41:53;;;;;;;0.40;0.30;;;;;;;4.86;95.40;99713.63;5033750;28;20424;-70
2021/11/03 02:44:21;;;;;;;0.40;0.20;;;;;;;4.89;94.70;99709.59;5033513;28;20443;-69
2021/11/03 02:46:48;;;;;;;0.40;0.30;;;;;;;4.80;93.79;99709.41;5033565;28;20446;-70
2021/11/03 02:49:14;;;;;;;0.40;0.30;;;;;;;4.62;93.94;99699.41;5033569;28;20454;-70
2021/11/03 02:51:43;;;;;;;0.40;0.30;;;;;;;4.60;93.46;99698.88;5033560;28;20436;-70
2021/11/03 02:54:12;;;;;;;0.40;0.30;;;;;;;4.58;94.05;99696.47;5033407;28;20450;-70
2021/11/03 02:56:42;;;;;;;0.40;0.30;;;;;;;4.64;93.71;99694.53;5032368;28;20495;-70
2021/11/03 02:59:10;;;;;;;0.40;0.30;;;;;;;4.72;93.70;99693.94;5033674;28;20451;-70
2021/11/03 03:01:39;;;;;;;0.40;0.30;;;;;;;4.60;94.21;99702.34;5033381;28;20439;-70
2021/11/03 03:04:09;;;;;;;0.40;0.30;;;;;;;4.45;93.34;99695.25;5033048;28;20997;-69
2021/11/03 03:06:36;;;;;;;0.40;0.30;;;;;;;4.31;93.02;99697.00;5033220;28;20467;-70
2021/11/03 03:09:04;;;;;;;0.40;0.30;;;;;;;4.26;93.60;99697.84;5033265;28;20446;-70
2021/11/03 03:11:33;;;;;;;0.40;0.30;;;;;;;4.21;92.76;99699.78;5033320;28;20427;-70
2021/11/03 03:14:00;;;;;;;0.40;0.30;;;;;;;4.22;92.48;99702.16;5032897;28;20482;-70
2021/11/03 03:16:29;;;;;;;0.40;0.30;;;;;;;4.14;92.68;99697.41;5032711;28;20856;-70
2021/11/03 03:18:55;;;;;;;0.40;0.30;;;;;;;4.03;92.59;99699.38;5032833;28;20823;-69
2021/11/03 03:21:23;;;;;;;0.50;0.50;;;;;;;4.11;92.66;99692.59;5032846;28;20862;-69
2021/11/03 03:23:50;;;;;;;0.40;0.30;;;;;;;3.98;94.59;99693.22;5033170;28;20443;-69
2021/11/03 03:26:20;;;;;;;0.40;0.20;;;;;;;3.96;93.66;99700.75;5033029;28;20459;-69
2021/11/03 03:28:47;;;;;;;0.40;0.27;;;;;;;3.94;93.34;99701.03;5032822;28;20424;-70
2021/11/03 03:31:15;;;;;;;0.40;0.30;;;;;;;3.90;93.15;99691.16;5033034;28;20509;-70
2021/11/03 03:33:44;;;;;;;0.40;0.30;;;;;;;3.88;93.91;99691.41;5032741;28;20937;-69
2021/11/03 03:36:11;;;;;;;0.40;0.30;;;;;;;3.91;94.70;99696.22;5032923;28;20474;-70
2021/11/03 03:38:38;;;;;;;0.40;0.30;;;;;;;3.95;95.30;99697.28;5032957;28;20487;-69
2021/11/03 03:41:04;;;;;;;0.40;0.30;;;;;;;4.08;95.06;99700.41;5032977;28;20937;-70
2021/11/03 03:43:31;;;;;;;0.40;0.30;;;;;;;4.15;94.41;99700.88;5033108;28;20448;-70
2021/11/03 03:45:59;;;;;;;0.40;0.30;;;;;;;4.22;94.25;99704.84;5032839;28;20934;-70
2021/11/03 03:48:25;;;;;;;0.40;0.30;;;;;;;4.23;93.65;99706.44;5032905;28;20450;-70
2021/11/03 03:50:54;;;;;;;0.40;0.30;;;;;;;4.24;93.79;99715.28;5032893;28;20487;-70
2021/11/03 03:53:21;;;;;;;0.40;0.30;;;;;;;4.18;94.42;99717.19;5032878;28;20454;-70
2021/11/03 03:55:47;;;;;;;0.40;0.30;;;;;;;4.13;93.84;99719.91;5032468;28;20475;-70
2021/11/03 03:58:14;;;;;;;1.43;1.17;;;;;;;4.05;93.80;99726.66;5032465;28;21028;-70
2021/11/03 04:00:41;;;;;;;0.40;0.30;;;;;;;4.10;94.23;99733.88;5032841;28;20447;-70
2021/11/03 04:03:07;;;;;;;0.40;0.30;;;;;;;4.08;94.47;99738.72;5032750;28;20458;-70
2021/11/03 04:05:34;;;;;;;0.40;0.30;;;;;;;4.05;95.10;99732.03;5032715;28;20892;-70
2021/11/03 04:08:02;;;;;;;0.40;0.30;;;;;;;4.01;92.79;99739.00;5034062;28;20439;-70
2021/11/03 04:10:29;;;;;;;0.40;0.30;;;;;;;3.82;92.80;99745.31;5036496;28;20457;-70
2021/11/03 04:12:55;;;;;;;0.40;0.30;;;;;;;3.75;93.06;99759.78;5036383;28;20443;-70
2021/11/03 04:15:22;;;;;;;0.40;0.30;;;;;;;3.73;92.70;99767.31;5036502;28;20467;-70
2021/11/03 04:17:48;;;;;;;0.40;0.30;;;;;;;3.66;93.11;99763.34;5036366;28;20537;-70
2021/11/03 04:20:16;;;;;;;0.40;0.30;;;;;;;3.70;92.87;99765.19;5036354;28;20501;-70
2021/11/03 04:22:43;;;;;;;0.40;0.30;;;;;;;3.75;92.55;99765.16;5036255;28;20918;-70
2021/11/03 04:25:12;;;;;;;0.40;0.30;;;;;;;3.70;92.41;99759.81;5036134;28;20550;-70
2021/11/03 04:27:38;;;;;;;0.40;0.30;;;;;;;3.85;93.21;99763.50;5036167;28;20443;-70
2021/11/03 04:30:07;;;;;;;0.40;0.30;;;;;;;3.89;93.39;99761.88;5036107;28;20446;-70
2021/11/03 04:32:34;;;;;;;0.40;0.30;;;;;;;3.94;92.96;99762.66;5036067;28;20450;-70
2021/11/03 04:35:00;;;;;;;0.40;0.30;;;;;;;3.75;94.00;99772.38;5036021;28;20818;-70
2021/11/03 04:37:27;;;;;;;0.40;0.30;;;;;;;3.76;94.68;99769.44;5035865;28;20536;-69
2021/11/03 04:39:53;;;;;;;0.40;0.30;;;;;;;3.70;95.91;99770.53;5035962;28;20454;-70
2021/11/03 04:42:21;;;;;;;0.40;0.30;;;;;;;3.72;97.28;99771.06;5035927;28;20438;-70
2021/11/03 04:44:47;;;;;;;0.40;0.30;;;;;;;3.77;97.44;99760.34;5035496;28;21011;-70
2021/11/03 04:47:14;;;;;;;1.17;1.17;;;;;;;3.91;97.21;99763.19;5035788;28;20451;-70
2021/11/03 04:49:40;;;;;;;0.40;0.30;;;;;;;4.05;96.33;99758.03;5035467;28;20933;-70
2021/11/03 04:52:08;;;;;;;0.40;0.27;;;;;;;4.07;96.08;99769.25;5035355;28;20805;-70
2021/11/03 04:54:34;;;;;;;0.40;0.30;;;;;;;3.91;97.37;99765.88;5035457;28;20443;-70
2021/11/03 04:57:01;;;;;;;0.40;0.30;;;;;;;3.94;97.42;99769.88;5035630;28;20432;-70
2021/11/03 04:59:29;;;;;;;0.40;0.30;;;;;;;3.93;97.28;99769.06;5035631;28;20447;-70
2021/11/03 05:01:55;;;;;;;0.40;0.30;;;;;;;3.93;97.65;99762.91;5035505;28;20861;-70
2021/11/03 05:04:22;;;;;;;0.40;0.27;;;;;;;4.03;96.38;99773.59;5035164;28;20450;-70
2021/11/03 05:06:49;;;;;;;0.40;0.30;;;;;;;4.03;95.42;99768.22;5035476;28;20454;-70
2021/11/03 05:09:16;;;;;;;1.00;0.97;;;;;;;4.11;95.61;99772.97;5035359;28;20470;-70
2021/11/03 05:11:43;;;;;;;0.40;0.30;;;;;;;4.07;94.17;99773.81;5035367;28;20442;-70
2021/11/03 05:14:10;;;;;;;0.40;0.30;;;;;;;3.83;92.97;99768.34;5035285;28;20450;-70
2021/11/03 05:16:38;;;;;;;0.40;0.30;;;;;;;3.79;93.43;99768.88;5035251;28;20999;-70
2021/11/03 05:19:05;;;;;;;0.40;0.30;;;;;;;3.75;94.04;99769.72;5034400;28;21004;-70
2021/11/03 05:21:33;;;;;;;0.40;0.30;;;;;;;3.56;93.30;99766.06;5035474;28;20439;-70
2021/11/03 05:24:00;;;;;;;0.40;0.30;;;;;;;3.46;93.33;99761.56;5034752;28;20447;-70
2021/11/03 05:26:27;;;;;;;0.40;0.30;;;;;;;3.66;93.62;99774.03;5035091;28;20882;-71
2021/11/03 05:28:57;;;;;;;0.40;0.30;;;;;;;3.53;93.37;99775.44;5035040;28;20440;-69
2021/11/03 05:31:24;;;;;;;0.40;0.30;;;;;;;3.57;92.23;99781.84;5034740;28;20437;-72
2021/11/03 05:33:52;;;;;;;0.40;0.30;;;;;;;3.51;92.26;99777.59;5034563;28;20463;-71
2021/11/03 05:36:23;;;;;;;0.40;0.30;;;;;;;3.49;91.63;99766.34;5034828;28;20467;-70
2021/11/03 05:38:49;;;;;;;0.40;0.30;;;;;;;3.34;93.35;99763.75;5034518;28;20900;-71
2021/11/03 05:41:16;;;;;;;16.73;10.90;;;;;;;3.24;93.72;99760.03;5034448;28;20427;-70
2021/11/03 05:43:42;;;;;;;0.40;0.30;;;;;;;3.35;93.08;99757.31;5034442;28;20900;-70
2021/11/03 05:46:14;;;;;;;0.40;0.30;;;;;;;3.29;92.83;99756.53;5034626;28;20463;-71
2021/11/03 05:48:44;;;;;;;0.40;0.30;;;;;;;3.20;94.50;99758.97;5034665;28;20429;-71
2021/11/03 05:51:13;;;;;;;0.40;0.30;;;;;;;3.31;94.20;99761.59;5034408;28;20777;-71
2021/11/03 05:53:39;;;;;;;0.40;0.30;;;;;;;3.26;95.48;99763.22;5034512;28;20446;-71
2021/11/03 05:56:07;;;;;;;0.67;0.67;;;;;;;3.19;96.91;99765.41;5034986;28;20487;-71
2021/11/03 05:58:35;;;;;;;0.40;0.30;;;;;;;3.33;96.02;99757.59;5034133;28;20484;-71
2021/11/03 06:01:02;;;;;;;0.40;0.30;;;;;;;3.44;95.12;99761.81;5034245;28;20447;-71
2021/11/03 06:03:28;;;;;;;0.40;0.30;;;;;;;3.54;94.98;99767.16;5034380;28;20450;-71
2021/11/03 06:05:55;;;;;;;0.40;0.30;;;;;;;3.59;93.88;99758.28;5034317;28;20463;-71
2021/11/03 06:08:22;;;;;;;0.40;0.30;;;;;;;3.43;94.34;99757.53;5033990;28;20439;-71
2021/11/03 06:10:53;;;;;;;0.40;0.30;;;;;;;3.56;94.05;99764.19;5034242;28;20450;-71
2021/11/03 06:13:20;;;;;;;0.40;0.30;;;;;;;3.57;93.59;99771.13;5034164;28;20431;-71
2021/11/03 06:15:47;;;;;;;0.40;0.30;;;;;;;3.40;94.56;99770.66;5034136;28;20542;-71
2021/11/03 06:18:14;;;;;;;0.40;0.30;;;;;;;3.33;95.18;99772.84;5034021;28;20850;-71
2021/11/03 06:20:40;;;;;;;0.40;0.30;;;;;;;3.36;94.31;99769.59;5034069;28;20447;-71
2021/11/03 06:23:07;;;;;;;0.40;0.30;;;;;;;3.31;93.77;99774.97;5033999;28;20850;-71
2021/11/03 06:25:35;;;;;;;0.40;0.30;;;;;;;3.20;93.99;99783.06;5033910;28;20465;-71
2021/11/03 06:28:03;;;;;;;0.40;0.30;;;;;;;3.16;94.40;99783.88;5033920;28;20854;-71
2021/11/03 06:30:33;;;;;;;0.40;0.30;;;;;;;3.09;93.46;99789.47;5033106;28;20451;-71
2021/11/03 06:33:00;;;;;;;0.40;0.30;;;;;;;3.06;92.45;99792.72;5033805;28;20443;-70
2021/11/03 06:35:29;;;;;;;0.40;0.30;;;;;;;3.04;93.14;99790.28;5033735;28;20470;-70
2021/11/03 06:37:55;;;;;;;0.40;0.30;;;;;;;3.02;94.35;99797.81;5033615;28;20506;-70
2021/11/03 06:40:25;;;;;;;0.40;0.30;;;;;;;3.05;96.08;99807.16;5033610;28;20812;-70
2021/11/03 06:42:54;;;;;;;0.40;0.30;;;;;;;3.14;96.08;99813.53;5033539;28;20450;-70
2021/11/03 06:45:22;;;;;;;0.40;0.30;;;;;;;3.19;94.90;99808.22;5033527;28;20470;-70
2021/11/03 06:47:49;;;;;;;0.40;0.30;;;;;;;3.12;93.77;99815.72;5033684;28;20442;-70
2021/11/03 06:50:18;;;;;;;0.40;0.30;;;;;;;3.16;94.24;99824.81;5033551;28;20446;-70
2021/11/03 06:52:46;;;;;;;0.40;0.30;;;;;;;3.03;96.07;99810.09;5033508;28;20538;-70
2021/11/03 06:55:14;;;;;;;0.40;0.30;;;;;;;3.05;94.81;99831.22;5033215;28;20570;-70
2021/11/03 06:57:40;;;;;;;0.40;0.30;;;;;;;3.11;94.72;99826.69;5033419;28;20443;-70
2021/11/03 07:00:12;;;;;;;0.40;0.30;;;;;;;3.16;94.36;99835.50;5033101;28;20956;-71
2021/11/03 07:02:38;;;;;;;0.40;0.30;;;;;;;3.17;95.00;99847.00;5033411;28;20518;-71
2021/11/03 07:05:06;;;;;;;0.40;0.30;;;;;;;3.30;94.31;99838.41;5033263;28;20459;-72
2021/11/03 07:07:32;;;;;;;0.40;0.30;;;;;;;3.49;93.70;99838.63;5033348;28;20478;-69
2021/11/03 07:09:59;;;;;;;0.40;0.20;;;;;;;3.52;95.62;99846.91;5033216;28;20442;-74
2021/11/03 07:12:26;;;;;;;0.40;0.30;;;;;;;3.59;96.92;99845.84;5033184;28;20446;-69
2021/11/03 07:14:52;;;;;;;0.40;0.30;;;;;;;3.78;97.10;99853.00;5033173;28;20463;-70
2021/11/03 07:17:21;;;;;;;0.40;0.30;;;;;;;3.91;97.25;99856.16;5033216;28;20450;-70
2021/11/03 07:19:47;;;;;;;0.40;0.30;;;;;;;3.94;98.22;99859.09;5033105;28;20483;-70
2021/11/03 07:22:13;;;;;;;0.40;0.30;;;;;;;4.10;98.92;99867.84;5033178;28;20447;-72
2021/11/03 07:24:40;;;;;;;0.40;0.30;;;;;;;4.37;97.60;99867.44;5032732;28;20992;-70
2021/11/03 07:27:07;;;;;;;0.40;0.30;;;;;;;4.53;96.44;99862.78;5033059;28;20790;-70
2021/11/03 07:29:34;;;;;;;0.40;0.30;;;;;;;4.59;96.54;99866.22;5032836;28;20932;-69
2021/11/03 07:32:00;;;;;;;2.37;2.27;;;;;;;4.58;97.31;99861.94;5033067;28;20439;-69
2021/11/03 07:34:28;;;;;;;0.40;0.30;;;;;;;4.66;97.85;99866.72;5032962;28;20561;-69
2021/11/03 07:36:54;;;;;;;0.40;0.30;;;;;;;4.85;97.31;99864.16;5032714;28;20979;-69
2021/11/03 07:39:21;;;;;;;0.40;0.30;;;;;;;4.95;98.08;99853.34;5032899;28;20495;-69
2021/11/03 07:41:47;;;;;;;0.40;0.30;;;;;;;4.98;98.90;99858.94;5034432;28;20458;-69
2021/11/03 07:44:16;;;;;;;0.40;0.20;;;;;;;5.19;98.36;99859.56;5037006;28;20479;-69
2021/11/03 07:46:43;;;;;;;0.40;0.30;;;;;;;5.34;97.54;99869.34;5036892;28;20470;-69
2021/11/03 07:49:09;;;;;;;0.40;0.30;;;;;;;5.41;97.79;99869.03;5036913;28;20854;-69
2021/11/03 07:51:37;;;;;;;5.73;4.93;;;;;;;5.54;97.76;99863.00;5036884;28;20447;-69
2021/11/03 07:54:04;;;;;;;0.40;0.30;;;;;;;5.59;98.75;99868.31;5036552;28;20953;-69
2021/11/03 07:56:33;;;;;;;0.40;0.30;;;;;;;5.71;98.53;99868.72;5036298;28;20477;-69
2021/11/03 07:59:00;;;;;;;0.40;0.30;;;;;;;5.85;98.05;99870.72;5036841;28;20479;-69
2021/11/03 08:01:26;;;;;;;0.40;0.30;;;;;;;5.91;98.14;99881.09;5036279;28;20450;-68
2021/11/03 08:03:54;;;;;;;0.40;0.30;;;;;;;6.04;98.43;99874.25;5036679;28;20469;-68
2021/11/03 08:06:22;;;;;;;0.40;0.30;;;;;;;6.24;97.93;99886.63;5036527;28;20558;-68
2021/11/03 08:09:01;;;;;;;0.40;0.30;;;;;;;6.36;98.82;99886.19;5036575;28;20445;-67
2021/11/03 08:11:30;;;;;;;0.40;0.33;;;;;;;6.34;100.00;99891.09;5036217;28;20893;-67
2021/11/03 08:13:56;;;;;;;1.17;1.17;;;;;;;6.43;100.00;99886.66;5036188;28;20497;-67
2021/11/03 08:16:23;;;;;;;0.40;0.30;;;;;;;6.53;100.00;99891.88;5036080;28;21007;-68
2021/11/03 08:18:50;;;;;;;2.83;2.63;;;;;;;6.69;100.00;99890.56;5036353;28;20514;-68
2021/11/03 08:21:16;;;;;;;0.40;0.30;;;;;;;6.78;100.00;99898.78;5036293;28;20443;-68
2021/11/03 08:23:43;;;;;;;0.40;0.30;;;;;;;6.92;100.00;99898.84;5036255;28;20443;-68
2021/11/03 08:26:11;;;;;;;0.40;0.30;;;;;;;6.95;100.00;99898.22;5036329;28;20459;-68
2021/11/03 08:28:38;;;;;;;0.40;0.40;;;;;;;7.08;100.00;99900.19;5036529;28;20970;-68
2021/11/03 08:31:05;;;;;;;0.40;0.30;;;;;;;7.19;100.00;99898.13;5036652;28;20454;-68
2021/11/03 08:33:37;;;;;;;0.40;0.40;;;;;;;7.33;100.00;99899.75;5035979;28;20533;-69
2021/11/03 08:36:05;;;;;;;0.40;0.30;;;;;;;7.42;100.00;99902.56;5035820;28;20546;-67
2021/11/03 08:38:34;;;;;;;0.40;0.30;;;;;;;7.50;100.00;99909.16;5035891;28;20533;-67
2021/11/03 08:41:00;;;;;;;0.40;0.27;;;;;;;7.66;99.86;99909.69;5035956;28;20447;-67
2021/11/03 08:43:34;;;;;;;0.40;0.30;;;;;;;7.74;99.90;99901.69;5035934;28;20500;-67
2021/11/03 08:46:01;;;;;;;0.40;0.30;;;;;;;7.82;99.97;99894.81;5035534;28;20486;-67
2021/11/03 08:48:28;;;;;;;2.20;1.60;;;;;;;7.90;99.91;99898.72;5035875;28;20435;-67
2021/11/03 08:50:56;;;;;;;0.40;0.30;;;;;;;7.98;99.89;99892.63;5035751;28;20456;-68
2021/11/03 08:53:23;;;;;;;0.40;0.30;;;;;;;8.03;99.76;99898.72;5034901;28;20454;-70
2021/11/03 08:55:51;;;;;;;0.40;0.30;;;;;;;8.09;99.79;99900.19;5035423;28;20487;-72
2021/11/03 08:58:21;;;;;;;0.40;0.30;;;;;;;8.17;99.58;99898.69;5035525;28;20450;-70
2021/11/03 09:00:51;;;;;;;0.40;0.30;;;;;;;8.25;99.45;99894.50;5035271;28;20941;-70
2021/11/03 09:03:18;;;;;;;0.40;0.30;;;;;;;8.39;99.17;99891.81;5035622;28;20452;-70
2021/11/03 09:05:45;;;;;;;0.40;0.30;;;;;;;8.45;98.98;99891.38;5035501;28;20489;-70
2021/11/03 09:08:14;;;;;;;0.40;0.30;;;;;;;8.53;98.91;99887.16;5035106;28;21004;-69
2021/11/03 09:10:45;;;;;;;0.40;0.30;;;;;;;8.66;98.89;99885.53;5035370;28;20451;-69
2021/11/03 09:13:13;;;;;;;0.40;0.30;;;;;;;8.73;98.33;99896.72;5035313;28;20548;-70
2021/11/03 09:15:39;;;;;;;0.40;0.30;;;;;;;8.83;98.04;99897.25;5035247;28;20451;-69
2021/11/03 09:18:07;;;;;;;0.40;0.30;;;;;;;8.89;97.80;99899.84;5035240;28;20434;-69
2021/11/03 09:20:34;;;;;;;0.40;0.30;;;;;;;9.01;97.73;99891.97;5035198;28;20447;-69
2021/11/03 09:23:00;;;;;;;0.40;0.27;;;;;;;9.09;97.54;99891.25;5034926;28;20937;-68
2021/11/03 09:25:26;;;;;;;0.40;0.30;;;;;;;9.21;97.12;99893.38;5035017;28;20459;-69
2021/11/03 09:27:53;;;;;;;0.40;0.30;;;;;;;9.31;96.57;99891.22;5035088;28;20439;-69
2021/11/03 09:30:23;;;;;;;0.40;0.30;;;;;;;9.39;96.30;99886.19;5035258;28;20474;-69
2021/11/03 09:32:55;;;;;;;0.40;0.30;;;;;;;9.53;95.92;99889.59;5035154;28;20535;-68
2021/11/03 09:35:28;;;;;;;0.40;0.30;;;;;;;9.67;95.56;99884.09;5033322;28;20517;-69
2021/11/03 09:37:56;;;;;;;0.40;0.30;;;;;;;9.77;95.15;99887.28;5034902;28;20427;-69
2021/11/03 09:40:26;;;;;;;0.40;0.30;;;;;;;9.89;93.74;99888.63;5035024;28;20582;-69
2021/11/03 09:42:54;;;;;;;2.70;2.60;;;;;;;9.95;92.79;99888.16;5034766;28;20444;-68
2021/11/03 09:45:24;;;;;;;0.40;0.30;;;;;;;10.08;92.11;99883.72;5034690;28;20503;-68
2021/11/03 09:48:00;;;;;;;0.40;0.20;;;;;;;10.19;90.61;99885.03;5034693;28;20462;-69
2021/11/03 09:50:28;;;;;;;0.40;0.30;;;;;;;10.23;89.55;99885.22;5034727;28;20794;-69
2021/11/03 09:52:58;;;;;;;0.50;0.40;;;;;;;10.30;88.80;99882.84;5034549;28;20447;-69
2021/11/03 09:55:28;;;;;;;0.40;0.30;;;;;;;10.30;89.48;99878.22;5034507;28;20470;-69
2021/11/03 09:58:04;;;;;;;0.40;0.30;;;;;;;10.29;89.73;99884.75;5034503;28;20446;-68
2021/11/03 10:00:40;;;;;;;0.40;0.30;;;;;;;10.28;90.21;99875.06;5034130;28;20489;-69
2021/11/03 10:03:21;;;;;;;0.40;0.30;;;;;;;10.39;90.97;99883.66;5034461;28;20427;-68
2021/11/03 10:05:53;;;;;;;0.40;0.30;;;;;;;10.45;90.77;99878.91;5034314;28;20451;-69
2021/11/03 10:08:23;;;;;;;0.40;0.30;;;;;;;10.43;89.09;99873.00;5034538;28;20434;-68
2021/11/03 10:10:53;;;;;;;0.40;0.30;;;;;;;10.43;89.73;99881.13;5034550;28;20439;-68
2021/11/03 10:13:22;;;;;;;0.40;0.30;;;;;;;10.41;89.65;99877.94;5034539;28;20439;-68
2021/11/03 10:15:54;;;;;;;0.40;0.20;;;;;;;10.46;90.03;99875.88;5034094;28;20454;-69
2021/11/03 10:18:22;;;;;;;0.50;0.43;;;;;;;10.58;88.72;99872.50;5034055;28;20443;-68
2021/11/03 10:21:15;;;;;;;0.40;0.30;;;;;;;10.69;87.82;99886.56;5033761;28;20478;-68
2021/11/03 10:23:51;;;;;;;0.40;0.30;;;;;;;10.68;87.94;99880.34;5034074;28;20431;-68
2021/11/03 10:26:18;;;;;;;0.40;0.30;;;;;;;10.68;88.01;99882.25;5033549;28;20471;-69
2021/11/03 10:28:48;;;;;;;0.40;0.30;;;;;;;10.69;86.84;99884.63;5033939;28;20439;-69
2021/11/03 10:31:25;;;;;;;0.40;0.30;;;;;;;10.74;87.12;99870.13;5034212;28;20439;-69
2021/11/03 10:33:59;;;;;;;0.40;0.30;;;;;;;10.77;88.05;99874.94;5033936;28;20805;-69
2021/11/03 10:36:37;;;;;;;0.40;0.30;;;;;;;10.79;88.54;99878.09;5034211;28;20463;-68
2021/11/03 10:39:15;;;;;;;0.40;0.30;;;;;;;10.83;88.87;99879.06;5033708;28;20463;-69
2021/11/03 10:41:41;;;;;;;0.40;0.30;;;;;;;10.92;88.96;99889.88;5033764;28;20424;-68
2021/11/03 10:44:19;;;;;;;3.80;1.90;;;;;;;10.95;88.77;99890.03;5033683;28;20453;-68
2021/11/03 10:46:53;;;;;;;0.40;0.30;;;;;;;10.97;88.05;99892.44;5033647;28;20435;-69
2021/11/03 10:49:34;;;;;;;0.40;0.30;;;;;;;11.00;88.47;99889.09;5033193;28;20993;-69
2021/11/03 10:52:19;;;;;;;0.40;0.30;;;;;;;11.01;88.39;99894.16;5033230;28;20423;-69
2021/11/03 10:54:50;;;;;;;0.40;0.30;;;;;;;11.05;87.62;99897.03;5033420;28;20479;-69
2021/11/03 10:57:23;;;;;;;0.40;0.30;;;;;;;11.09;87.28;99889.88;5033510;28;20439;-69
2021/11/03 10:59:52;;;;;;;0.40;0.30;;;;;;;11.18;87.14;99884.44;5033438;28;20470;-69
2021/11/03 11:02:25;;;;;;;0.40;0.30;;;;;;;11.20;87.04;99893.03;5033657;28;20447;-69
2021/11/03 11:04:53;;;;;;;0.40;0.20;;;;;;;11.23;87.62;99898.59;5033339;28;20459;-68
2021/11/03 11:07:28;;;;;;;0.40;0.20;;;;;;;11.27;86.83;99891.41;5033331;28;20538;-68
2021/11/03 11:10:00;;;;;;;0.40;0.30;;;;;;;11.27;86.39;99907.69;5033375;28;20431;-68
2021/11/03 11:12:29;;;;;;;0.40;0.30;;;;;;;11.22;86.52;99902.44;5033359;28;20431;-68
2021/11/03 11:14:58;;;;;;;0.40;0.30;;;;;;;11.28;86.98;99894.94;5032815;28;20486;-69
2021/11/03 11:17:29;;;;;;;0.40;0.30;;;;;;;11.17;86.17;99889.06;5032751;28;20446;-68
2021/11/03 11:20:07;;;;;;;0.40;0.27;;;;;;;11.29;85.99;99885.69;5033453;28;20513;-68
2021/11/03 11:22:43;;;;;;;0.40;0.30;;;;;;;11.41;85.91;99882.28;5033090;28;20519;-69
2021/11/03 11:25:13;;;;;;;0.40;0.30;;;;;;;11.50;86.03;99872.22;5032965;28;20478;-68
2021/11/03 11:27:53;;;;;;;0.40;0.30;;;;;;;11.67;85.36;99865.94;5033154;28;20428;-68
2021/11/03 11:30:23;;;;;;;0.40;0.30;;;;;;;11.78;83.85;99870.69;5033158;28;20889;-68
2021/11/03 11:32:59;;;;;;;0.40;0.20;;;;;;;11.88;83.50;99874.19;5033094;28;20443;-69
2021/11/03 11:35:43;;;;;;;0.40;0.30;;;;;;;12.01;83.08;99873.16;5032771;28;20474;-68
2021/11/03 11:38:22;;;;;;;0.40;0.30;;;;;;;12.18;81.71;99873.03;5033042;28;20431;-69
2021/11/03 11:40:53;;;;;;;0.40;0.30;;;;;;;12.38;81.75;99858.66;5032257;28;20541;-69
2021/11/03 11:43:27;;;;;;;0.40;0.30;;;;;;;12.70;82.24;99869.13;5033220;28;20439;-68
2021/11/03 11:45:54;;;;;;;0.40;0.30;;;;;;;13.11;80.60;99865.56;5033006;28;20490;-69